Big Creek, CA (93605)

11:18 AM PST on February 08, 2016 (GMT -0800)
Granite Ridge,Shaver Lake, CA | | Change Station
CLOSE
Current Station
Personal Weather Station
Location: Shaver Lake, CA
Elevation: 5843 ft
Nearby Weather Stations

Elev 5843 ft 37.09 °N, 119.31 °W | Updated 4 minutes ago

Clear
Clear
66.6 °F
Feels Like 66.6 °F
N
1.1
Wind Variable Wind from SSW
Gusts 1.1 mph

Today
High -- | Low -- °F
--% Chance of Precip.
Yesterday
High -- | Low -- °F
Precip. -- in
Pressure 30.61 in
Visibility 10.0 miles
Clouds Clear
Dew Point 27 °F
Humidity 22%
Rainfall 0.00 in
Snow Depth Not available.
6:53 AM 5:28 PM
New Moon, 0% visible
METAR KMMH 081855Z AUTO 14004KT 10SM CLR 05/M04 A3061 RMK AO2
Pressure 30.61 in
Visibility 10.0 miles
Clouds Clear
Dew Point 27 °F
Humidity 22%
Rainfall 0.00 in
Snow Depth Not available.
6:53 AM 5:28 PM
New Moon, 0% visible
METAR KMMH 081855Z AUTO 14004KT 10SM CLR 05/M04 A3061 RMK AO2

10-Day Weather Forecast

Almanac

Astronomy

Feb. 08, 2016 Rise Set
Actual Time
Civil Twilight
Nautical Twilight
Astronomical Twilight
Moon
Length of Visible Light
Length of Day
Tomorrow will be .
, % of the Moon is Illuminated

Today's Extremes

State Highs State Lows

Community

WunderPhotos

Upload Photos

1,891,497 photos uploaded!

WunderBlog® & News

Nearby

Air Quality

  Air Quality AQ Index Pollutant
Not available.

Snow Depth

Station Depth Elevation

Earthquake Activity

City Distance Mag. Time & Date
Minimum magnitude displayed is 2.5.

Coastal Water Temperatures

Place Temperature

Stations

Nearby Weather Stations

Station Location Temp. Windchill Dew Point Humidity Wind Precip. Elev Updated Type
                   

Watches & Warnings

There are currently no watches in effect.